createdAt,value
2018-01-17T00:00:55.361Z,98949.05
2018-01-17T00:01:59.540Z,98955.22
2018-01-17T00:03:03.680Z,98951.25
2018-01-17T00:04:08.761Z,98953.45
2018-01-17T00:05:13.042Z,98945.58
2018-01-17T00:06:17.230Z,98951.23
2018-01-17T00:07:21.384Z,98954.32
2018-01-17T00:08:25.520Z,98944.22
2018-01-17T00:09:30.900Z,98942.86
2018-01-17T00:10:35.095Z,98934.95
2018-01-17T00:12:39.803Z,98927.47
2018-01-17T00:13:43.986Z,98927.36
2018-01-17T00:14:48.537Z,98931.80
2018-01-17T00:15:53.229Z,98928.34
2018-01-17T00:16:57.322Z,98926.19
2018-01-17T00:18:01.540Z,98923.18
2018-01-17T00:19:05.986Z,98923.31
2018-01-17T00:20:10.186Z,98929.86
2018-01-17T00:21:14.337Z,98917.94
2018-01-17T00:22:18.500Z,98921.03
2018-01-17T00:23:22.768Z,98918.48
2018-01-17T00:24:27.193Z,98914.16
2018-01-17T00:25:31.348Z,98910.20
2018-01-17T00:26:35.568Z,98910.48
2018-01-17T00:27:39.826Z,98915.25
2018-01-17T00:28:44.157Z,98907.92
2018-01-17T00:29:48.542Z,98909.70
2018-01-17T00:30:52.849Z,98914.53
2018-01-17T00:31:57.281Z,98908.38
2018-01-17T00:33:01.478Z,98910.16
2018-01-17T00:34:06.683Z,98921.19
2018-01-17T00:35:10.826Z,98918.52
2018-01-17T00:36:15.051Z,98919.53
2018-01-17T00:37:19.196Z,98914.36
2018-01-17T00:38:23.690Z,98913.13
2018-01-17T00:39:28.056Z,98909.58
2018-01-17T00:40:32.202Z,98916.67
2018-01-17T00:41:36.479Z,98913.60
2018-01-17T00:42:40.684Z,98904.88
2018-01-17T00:43:44.858Z,98912.23
2018-01-17T00:44:49.348Z,98909.55
2018-01-17T00:45:53.638Z,98911.76
2018-01-17T00:46:57.869Z,98911.80
2018-01-17T00:48:02.081Z,98916.52
2018-01-17T00:49:06.485Z,98912.63
2018-01-17T00:50:11.383Z,98917.42
2018-01-17T00:51:15.825Z,98915.64
2018-01-17T00:52:20.010Z,98914.28
2018-01-17T00:53:24.160Z,98909.02
2018-01-17T00:54:29.124Z,98915.10
2018-01-17T00:55:33.252Z,98906.38
2018-01-17T00:56:37.398Z,98908.91
2018-01-17T00:57:41.508Z,98916.41
2018-01-17T00:58:45.804Z,98915.58
2018-01-17T00:59:49.946Z,98904.67
2018-01-17T01:00:54.771Z,98908.64
2018-01-17T01:01:59.474Z,98904.30
2018-01-17T01:03:03.605Z,98905.63
2018-01-17T01:04:08.640Z,98903.87
2018-01-17T01:05:12.835Z,98904.58
2018-01-17T01:06:17.031Z,98909.83
2018-01-17T01:07:21.302Z,98913.77
2018-01-17T01:08:25.428Z,98903.33
2018-01-17T01:09:30.421Z,98907.19
2018-01-17T01:10:34.894Z,98907.52
2018-01-17T01:11:39.044Z,98909.73
2018-01-17T01:12:43.171Z,98903.70
2018-01-17T01:13:47.394Z,98907.22
2018-01-17T01:14:51.512Z,98908.94
2018-01-17T01:15:56.149Z,98917.95
2018-01-17T01:17:00.367Z,98903.01
2018-01-17T01:18:04.557Z,98908.34
2018-01-17T01:19:08.981Z,98905.28
2018-01-17T01:20:13.133Z,98900.88
2018-01-17T01:21:17.404Z,98893.89
2018-01-17T01:22:21.566Z,98899.50
2018-01-17T01:23:25.681Z,98881.59
2018-01-17T01:24:30.966Z,98881.16
2018-01-17T01:25:35.892Z,98886.30
2018-01-17T01:26:39.960Z,98884.17
2018-01-17T01:27:44.155Z,98892.14
2018-01-17T01:28:48.703Z,98890.81
2018-01-17T01:29:52.897Z,98890.80
2018-01-17T01:30:57.017Z,98885.11
2018-01-17T01:32:01.356Z,98873.66
2018-01-17T01:33:05.486Z,98882.47
2018-01-17T01:34:09.728Z,98883.39
2018-01-17T01:35:14.132Z,98884.69
2018-01-17T01:36:18.258Z,98874.70
2018-01-17T01:37:22.376Z,98888.26
2018-01-17T01:38:26.452Z,98882.64
2018-01-17T01:39:32.172Z,98885.27
2018-01-17T01:40:36.345Z,98886.56
2018-01-17T01:41:40.724Z,98887.92
2018-01-17T01:42:44.940Z,98887.89
2018-01-17T01:43:49.234Z,98887.84
2018-01-17T01:44:53.428Z,98889.58
2018-01-17T01:45:57.900Z,98887.42
2018-01-17T01:47:02.040Z,98886.16
2018-01-17T01:48:07.102Z,98887.42
2018-01-17T01:49:11.260Z,98884.84
2018-01-17T01:50:15.431Z,98883.98
2018-01-17T01:51:19.549Z,98873.41
2018-01-17T01:52:23.656Z,98881.41
2018-01-17T01:53:27.831Z,98882.34
2018-01-17T01:54:32.301Z,98881.44
2018-01-17T01:55:36.399Z,98880.48
2018-01-17T01:56:40.503Z,98873.95
2018-01-17T01:57:44.691Z,98883.23
2018-01-17T01:58:49.604Z,98883.78
2018-01-17T01:59:54.385Z,98882.91
2018-01-17T02:00:59.332Z,98877.67
2018-01-17T02:02:03.842Z,98884.67
2018-01-17T02:03:09.281Z,98872.39
2018-01-17T02:04:13.387Z,98882.44
2018-01-17T02:05:17.528Z,98885.03
2018-01-17T02:06:21.680Z,98890.68
2018-01-17T02:07:26.286Z,98880.61
2018-01-17T02:08:31.465Z,98891.05
2018-01-17T02:09:35.604Z,98881.00
2018-01-17T02:10:39.731Z,98880.11
2018-01-17T02:11:43.907Z,98871.78
2018-01-17T02:12:48.155Z,98879.70
2018-01-17T02:13:52.667Z,98882.73
2018-01-17T02:14:56.957Z,98877.09
2018-01-17T02:16:02.587Z,98874.05
2018-01-17T02:17:07.856Z,98876.23
2018-01-17T02:18:12.469Z,98880.56
2018-01-17T02:19:16.590Z,98877.86
2018-01-17T02:20:21.077Z,98883.09
2018-01-17T02:21:25.204Z,98869.83
2018-01-17T02:22:29.392Z,98871.22
2018-01-17T02:23:33.570Z,98887.45
2018-01-17T02:24:37.720Z,98884.03
2018-01-17T02:25:41.903Z,98884.51
2018-01-17T02:26:46.313Z,98882.77
2018-01-17T02:27:50.673Z,98886.67
2018-01-17T02:28:54.805Z,98888.78
2018-01-17T02:29:58.909Z,98892.64
2018-01-17T02:31:03.660Z,98887.83
2018-01-17T02:32:07.800Z,98883.86
2018-01-17T02:36:10.793Z,98889.38
2018-01-17T02:37:16.623Z,98901.20
2018-01-17T02:38:22.288Z,98896.81
2018-01-17T02:39:35.094Z,98903.34
2018-01-17T02:40:43.060Z,98899.80
2018-01-17T02:41:49.931Z,98901.97
2018-01-17T02:42:54.676Z,98901.88
2018-01-17T02:43:59.129Z,98892.13
2018-01-17T02:45:07.594Z,98889.44
2018-01-17T02:46:12.701Z,98890.77
2018-01-17T02:47:18.305Z,98892.59
2018-01-17T02:48:23.432Z,98885.16
2018-01-17T02:49:28.210Z,98875.17
2018-01-17T02:50:33.912Z,98881.88
2018-01-17T02:51:38.856Z,98879.75
2018-01-17T02:52:43.637Z,98893.38
2018-01-17T02:53:48.458Z,98895.54
2018-01-17T02:54:53.518Z,98884.96
2018-01-17T02:56:00.046Z,98883.12
2018-01-17T02:57:07.660Z,98883.08
2018-01-17T02:58:13.387Z,98881.92
2018-01-17T02:59:20.106Z,98881.06
2018-01-17T03:00:25.850Z,98890.81
2018-01-17T03:01:32.120Z,98889.60
2018-01-17T03:02:38.346Z,98887.48
2018-01-17T03:03:43.818Z,98890.09
2018-01-17T03:04:49.274Z,98883.11
2018-01-17T03:05:54.470Z,98889.19
2018-01-17T03:07:03.690Z,98876.45
2018-01-17T03:08:09.821Z,98885.22
2018-01-17T03:09:16.016Z,98886.56
2018-01-17T03:10:22.068Z,98886.16
2018-01-17T03:11:28.201Z,98882.24
2018-01-17T03:12:33.725Z,98886.64
2018-01-17T03:13:39.466Z,98887.09
2018-01-17T03:14:44.163Z,98882.75
2018-01-17T03:15:50.184Z,98878.29
2018-01-17T03:16:55.534Z,98879.63
2018-01-17T03:18:00.512Z,98872.24
2018-01-17T03:19:08.521Z,98868.67
2018-01-17T03:20:20.003Z,98873.47
2018-01-17T03:21:24.851Z,98869.08
2018-01-17T03:22:30.332Z,98877.42
2018-01-17T03:23:35.126Z,98884.86
2018-01-17T03:24:39.794Z,98877.44
2018-01-17T03:25:44.886Z,98878.73
2018-01-17T03:26:49.741Z,98877.42
2018-01-17T03:27:53.870Z,98881.34
2018-01-17T03:28:58.691Z,98879.17
2018-01-17T03:30:08.649Z,98881.75
2018-01-17T03:31:12.914Z,98885.22
2018-01-17T03:32:18.960Z,98883.92
2018-01-17T03:33:24.318Z,98882.20
2018-01-17T03:34:30.701Z,98874.84
2018-01-17T03:35:34.859Z,98887.12
2018-01-17T03:36:40.555Z,98876.11
2018-01-17T03:37:46.325Z,98867.41
2018-01-17T03:38:54.914Z,98880.16
2018-01-17T03:40:00.245Z,98872.72
2018-01-17T03:41:05.145Z,98866.53
2018-01-17T03:42:10.455Z,98874.89
2018-01-17T03:43:17.248Z,98876.27
2018-01-17T03:44:21.786Z,98882.81
2018-01-17T03:45:26.299Z,98881.58
2018-01-17T03:46:33.293Z,98882.88
2018-01-17T03:47:38.238Z,98885.49
2018-01-17T03:48:44.733Z,98886.81
2018-01-17T03:49:49.548Z,98881.09
2018-01-17T03:50:54.384Z,98884.55
2018-01-17T03:51:59.749Z,98883.66
2018-01-17T03:53:05.455Z,98874.95
2018-01-17T03:54:11.117Z,98879.73
2018-01-17T03:55:16.053Z,98875.88
2018-01-17T03:56:20.815Z,98877.20
2018-01-17T03:57:26.228Z,98887.27
2018-01-17T03:58:36.121Z,98885.51
2018-01-17T03:59:41.470Z,98892.05
2018-01-17T04:00:47.359Z,98890.75
2018-01-17T04:01:52.950Z,98892.54
2018-01-17T04:03:05.344Z,98903.37
2018-01-17T04:04:11.457Z,98888.92
2018-01-17T04:05:17.061Z,98903.22
2018-01-17T04:06:21.850Z,98906.23
2018-01-17T04:07:26.296Z,98903.55
2018-01-17T04:08:31.229Z,98906.92
2018-01-17T04:09:36.781Z,98907.31
2018-01-17T04:10:42.130Z,98912.95
2018-01-17T04:11:46.549Z,98902.89
2018-01-17T04:12:52.682Z,98894.13
2018-01-17T04:13:59.129Z,98897.98
2018-01-17T04:15:06.833Z,98899.23
2018-01-17T04:16:11.568Z,98904.91
2018-01-17T04:17:16.306Z,98908.40
2018-01-17T04:18:21.652Z,98911.04
2018-01-17T04:19:26.644Z,98909.67
2018-01-17T04:20:32.372Z,98902.22
2018-01-17T04:21:37.139Z,98914.50
2018-01-17T04:22:44.022Z,98914.09
2018-01-17T04:25:02.603Z,98909.58
2018-01-17T04:26:07.221Z,98921.80
2018-01-17T04:27:11.364Z,98914.84
2018-01-17T04:28:15.608Z,98914.86
2018-01-17T04:29:19.720Z,98917.50
2018-01-17T04:30:24.640Z,98927.16
2018-01-17T04:31:29.636Z,98928.89
2018-01-17T04:32:33.724Z,98913.16
2018-01-17T04:33:37.902Z,98913.08
2018-01-17T04:34:42.264Z,98918.18
2018-01-17T04:35:46.536Z,98921.25
2018-01-17T04:36:51.024Z,98920.80
2018-01-17T04:37:55.182Z,98919.13
2018-01-17T04:38:59.324Z,98922.70
2018-01-17T04:40:03.472Z,98925.44
2018-01-17T04:41:08.481Z,98924.14
2018-01-17T04:42:12.611Z,98941.28
2018-01-17T04:43:17.032Z,98934.84
2018-01-17T04:44:21.193Z,98936.92
2018-01-17T04:45:25.776Z,98941.80
2018-01-17T04:46:30.694Z,98939.99
2018-01-17T04:47:34.794Z,98943.81
2018-01-17T04:48:38.935Z,98946.80
2018-01-17T04:49:43.116Z,98947.58
2018-01-17T04:50:47.252Z,98941.42
2018-01-17T04:51:51.360Z,98938.31
2018-01-17T04:52:55.481Z,98943.12
2018-01-17T04:53:59.596Z,98952.27
2018-01-17T04:55:04.041Z,98949.17
2018-01-17T04:56:09.145Z,98952.05
2018-01-17T04:57:13.670Z,98954.27
2018-01-17T04:58:17.745Z,98952.90
2018-01-17T04:59:21.955Z,98957.75
2018-01-17T05:00:26.181Z,98959.52
2018-01-17T05:01:31.135Z,98969.38
2018-01-17T05:02:35.910Z,98973.68
2018-01-17T05:03:40.432Z,98976.42
2018-01-17T05:04:44.590Z,98979.27
2018-01-17T05:05:48.870Z,98975.08
2018-01-17T05:06:53.429Z,98983.48
2018-01-17T05:07:57.851Z,98977.01
2018-01-17T05:09:04.541Z,98988.45
2018-01-17T05:10:09.965Z,98982.09
2018-01-17T05:11:14.384Z,98985.69
2018-01-17T05:12:18.770Z,98993.11
2018-01-17T05:13:23.370Z,98992.68
2018-01-17T05:14:28.251Z,98997.05
2018-01-17T05:15:33.066Z,98998.86
2018-01-17T05:16:37.134Z,99002.30
2018-01-17T05:17:41.272Z,98999.63
2018-01-17T05:18:45.338Z,98997.48
2018-01-17T05:19:49.569Z,98997.59
2018-01-17T05:20:53.952Z,98992.39
2018-01-17T05:21:58.408Z,98990.23
2018-01-17T05:23:03.633Z,98989.78
2018-01-17T05:24:08.205Z,98992.45
2018-01-17T05:25:12.426Z,98999.02
2018-01-17T05:26:16.576Z,99000.74
2018-01-17T05:27:21.136Z,98997.30
2018-01-17T05:28:25.245Z,98999.88
2018-01-17T05:29:29.421Z,99005.54
2018-01-17T05:30:33.813Z,99001.63
2018-01-17T05:31:37.920Z,99005.55
2018-01-17T05:32:42.476Z,99002.83
2018-01-17T05:33:46.884Z,99005.03
2018-01-17T05:34:51.119Z,99003.73
2018-01-17T05:35:55.227Z,99005.05
2018-01-17T05:37:00.390Z,99010.27
2018-01-17T05:38:04.861Z,99011.58
2018-01-17T05:39:09.324Z,99013.66
2018-01-17T05:40:13.512Z,99015.41
2018-01-17T05:41:18.153Z,99007.59
2018-01-17T05:42:22.649Z,99009.80
2018-01-17T05:43:26.838Z,99014.18
2018-01-17T05:44:30.993Z,99010.23
2018-01-17T05:45:35.649Z,99012.84
2018-01-17T05:46:40.058Z,99013.17
2018-01-17T05:47:44.597Z,99019.77
2018-01-17T05:48:48.693Z,99019.79
2018-01-17T05:49:53.328Z,99013.21
2018-01-17T05:50:58.157Z,99018.57
2018-01-17T05:52:02.273Z,99019.94
2018-01-17T05:53:08.428Z,99016.89
2018-01-17T05:54:12.530Z,99025.13
2018-01-17T05:55:16.871Z,99030.42
2018-01-17T05:56:21.139Z,99023.02
2018-01-17T05:57:25.288Z,99036.59
2018-01-17T05:58:29.425Z,99027.43
2018-01-17T05:59:33.837Z,99022.26
2018-01-17T06:00:38.153Z,99027.50
2018-01-17T06:01:42.360Z,99033.63
2018-01-17T06:02:46.518Z,99036.67
2018-01-17T06:03:50.698Z,99040.17
2018-01-17T06:04:54.812Z,99034.92
2018-01-17T06:05:59.302Z,99040.53
2018-01-17T06:07:03.516Z,99034.84
2018-01-17T06:08:07.717Z,99033.53
2018-01-17T06:09:11.895Z,99040.09
2018-01-17T06:10:16.089Z,99044.01
2018-01-17T06:11:21.507Z,99042.70
2018-01-17T06:12:25.732Z,99047.86
2018-01-17T06:13:29.846Z,99050.03
2018-01-17T06:14:33.940Z,99048.67
2018-01-17T06:15:38.398Z,99058.30
2018-01-17T06:16:42.493Z,99053.88
2018-01-17T06:17:47.017Z,99059.61
2018-01-17T06:18:51.151Z,99052.56
2018-01-17T06:19:55.368Z,99065.27
2018-01-17T06:21:00.272Z,99056.53
2018-01-17T06:22:04.380Z,99063.95
2018-01-17T06:23:08.600Z,99069.17
2018-01-17T06:24:13.113Z,99071.80
2018-01-17T06:25:17.347Z,99073.59
2018-01-17T06:26:21.554Z,99067.03
2018-01-17T06:27:25.669Z,99072.66
2018-01-17T06:28:29.879Z,99076.22
2018-01-17T06:29:34.004Z,99073.59
2018-01-17T06:30:38.348Z,99076.17
2018-01-17T06:31:42.545Z,99080.98
2018-01-17T06:32:46.754Z,99081.86
2018-01-17T06:33:50.908Z,99086.23
2018-01-17T06:34:55.124Z,99086.69
2018-01-17T06:36:00.292Z,99089.75
2018-01-17T06:37:04.760Z,99089.69
2018-01-17T06:38:09.145Z,99092.78
2018-01-17T06:39:13.277Z,99099.73
2018-01-17T06:40:17.388Z,99094.52
2018-01-17T06:41:21.545Z,99100.15
2018-01-17T06:42:25.649Z,99104.95
2018-01-17T06:43:30.149Z,99102.30
2018-01-17T06:44:34.252Z,99102.76
2018-01-17T06:45:38.683Z,99106.72
2018-01-17T06:46:42.883Z,99111.07
2018-01-17T06:47:47.050Z,99105.00
2018-01-17T06:48:51.184Z,99110.24
2018-01-17T06:49:55.689Z,99104.95
2018-01-17T06:51:01.491Z,99112.78
2018-01-17T06:52:05.593Z,99115.88
2018-01-17T06:53:09.823Z,99115.46
2018-01-17T06:54:15.562Z,99108.50
2018-01-17T06:55:19.656Z,99117.23
2018-01-17T06:56:24.106Z,99113.73
2018-01-17T06:57:28.324Z,99122.05
2018-01-17T06:58:32.551Z,99119.81
2018-01-17T06:59:36.673Z,99119.38
2018-01-17T07:00:41.166Z,99121.49
2018-01-17T07:01:45.591Z,99118.92
2018-01-17T07:02:49.693Z,99114.11
2018-01-17T07:03:55.517Z,99125.91
2018-01-17T07:05:00.297Z,99123.31
2018-01-17T07:06:04.436Z,99124.64
2018-01-17T07:08:12.227Z,99136.05
2018-01-17T07:09:17.517Z,99140.84
2018-01-17T07:10:21.642Z,99143.94
2018-01-17T07:11:25.809Z,99143.95
2018-01-17T07:12:29.988Z,99137.84
2018-01-17T07:13:34.219Z,99142.62
2018-01-17T07:14:39.560Z,99153.11
2018-01-17T07:15:44.046Z,99157.06
2018-01-17T07:16:48.180Z,99155.31
2018-01-17T07:17:52.387Z,99156.63
2018-01-17T07:18:56.577Z,99162.75
2018-01-17T07:20:00.772Z,99162.27
2018-01-17T07:21:05.196Z,99169.66
2018-01-17T07:22:09.360Z,99167.89
2018-01-17T07:23:13.477Z,99165.30
2018-01-17T07:24:17.724Z,99166.17
2018-01-17T07:25:21.832Z,99165.72
2018-01-17T07:26:25.958Z,99171.40
2018-01-17T07:27:30.102Z,99173.16
2018-01-17T07:28:34.319Z,99167.00
2018-01-17T07:29:38.528Z,99172.25
2018-01-17T07:30:42.955Z,99181.85
2018-01-17T07:31:47.536Z,99176.61
2018-01-17T07:32:51.649Z,99187.94
2018-01-17T07:33:56.178Z,99175.66
2018-01-17T07:35:00.370Z,99176.91
2018-01-17T07:36:04.516Z,99181.67
2018-01-17T07:37:08.672Z,99184.76
2018-01-17T07:38:13.770Z,99182.95
2018-01-17T07:39:18.692Z,99190.87
2018-01-17T07:40:22.858Z,99190.46
2018-01-17T07:41:27.733Z,99186.48
2018-01-17T07:42:31.945Z,99193.01
2018-01-17T07:43:36.061Z,99198.67
2018-01-17T07:44:40.284Z,99194.32
2018-01-17T07:45:45.038Z,99192.95
2018-01-17T07:46:49.200Z,99198.58
2018-01-17T07:47:53.396Z,99201.20
2018-01-17T07:48:57.572Z,99206.55
2018-01-17T07:50:01.909Z,99208.25
2018-01-17T07:51:06.130Z,99216.08
2018-01-17T07:52:10.317Z,99212.23
2018-01-17T07:53:14.464Z,99222.31
2018-01-17T07:54:18.757Z,99228.02
2018-01-17T07:55:23.044Z,99227.19
2018-01-17T07:56:27.279Z,99238.52
2018-01-17T07:57:31.541Z,99236.72
2018-01-17T07:58:36.083Z,99249.79
2018-01-17T07:59:40.226Z,99248.44
2018-01-17T08:00:44.689Z,99250.61
2018-01-17T08:01:48.959Z,99251.89
2018-01-17T08:02:53.176Z,99255.83
2018-01-17T08:03:57.628Z,99258.77
2018-01-17T08:05:01.870Z,99268.84
2018-01-17T08:06:06.125Z,99267.97
2018-01-17T08:07:10.342Z,99277.60
2018-01-17T08:08:14.480Z,99272.82
2018-01-17T08:09:18.596Z,99271.02
2018-01-17T08:10:23.194Z,99273.10
2018-01-17T08:11:27.421Z,99263.38
2018-01-17T08:12:31.629Z,99267.77
2018-01-17T08:13:35.720Z,99276.53
2018-01-17T08:14:39.968Z,99281.36
2018-01-17T08:15:44.228Z,99284.84
2018-01-17T08:16:48.785Z,99286.12
2018-01-17T08:17:52.960Z,99284.80
2018-01-17T08:18:57.237Z,99286.05
2018-01-17T08:20:01.472Z,99282.53
2018-01-17T08:21:05.676Z,99291.25
2018-01-17T08:22:09.897Z,99293.45
2018-01-17T08:23:14.418Z,99306.19
2018-01-17T08:24:18.640Z,99297.95
2018-01-17T08:25:22.877Z,99297.06
2018-01-17T08:26:27.032Z,99295.67
2018-01-17T08:27:31.362Z,99297.92
2018-01-17T08:28:35.578Z,99299.70
2018-01-17T08:29:40.071Z,99298.44
2018-01-17T08:30:44.419Z,99302.34
2018-01-17T08:31:49.025Z,99301.08
2018-01-17T08:32:53.285Z,99304.61
2018-01-17T08:33:57.541Z,99310.69
2018-01-17T08:35:01.851Z,99306.74
2018-01-17T08:36:06.040Z,99314.58
2018-01-17T08:37:10.166Z,99316.75
2018-01-17T08:38:14.369Z,99308.02
2018-01-17T08:39:19.516Z,99305.39
2018-01-17T08:40:24.374Z,99314.69
2018-01-17T08:41:28.873Z,99308.56
2018-01-17T08:42:33.130Z,99320.39
2018-01-17T08:43:37.363Z,99317.69
2018-01-17T08:44:41.622Z,99325.98
2018-01-17T08:45:46.187Z,99324.73
2018-01-17T08:46:50.317Z,99326.09
2018-01-17T08:47:54.881Z,99332.31
2018-01-17T08:48:59.021Z,99337.55
2018-01-17T08:50:03.148Z,99341.92
2018-01-17T08:51:07.295Z,99345.84
2018-01-17T08:52:11.584Z,99355.08
2018-01-17T08:53:16.313Z,99346.36
2018-01-17T08:54:23.282Z,99347.23
2018-01-17T08:55:27.517Z,99352.45
2018-01-17T08:56:31.705Z,99345.48
2018-01-17T08:57:35.995Z,99340.66
2018-01-17T08:58:40.138Z,99344.66
2018-01-17T08:59:44.283Z,99349.50
2018-01-17T09:00:48.756Z,99353.90
2018-01-17T09:01:53.564Z,99352.55
2018-01-17T09:02:58.024Z,99351.67
2018-01-17T09:04:02.243Z,99352.55
2018-01-17T09:05:06.357Z,99357.36
2018-01-17T09:06:10.561Z,99355.14
2018-01-17T09:07:15.094Z,99362.13
2018-01-17T09:08:20.220Z,99365.66
2018-01-17T09:09:24.324Z,99362.08
2018-01-17T09:10:28.612Z,99369.14
2018-01-17T09:11:32.753Z,99372.65
2018-01-17T09:12:37.353Z,99363.07
2018-01-17T09:13:41.562Z,99376.17
2018-01-17T09:14:46.439Z,99384.00
2018-01-17T09:15:50.856Z,99378.73
2018-01-17T09:16:55.607Z,99380.91
2018-01-17T09:17:59.882Z,99389.60
2018-01-17T09:19:04.382Z,99396.52
2018-01-17T09:20:08.652Z,99389.81
2018-01-17T09:21:14.009Z,99398.89
2018-01-17T09:22:19.114Z,99392.27
2018-01-17T09:23:24.236Z,99397.09
2018-01-17T09:24:28.888Z,99399.20
2018-01-17T09:25:33.317Z,99402.13
2018-01-17T09:26:37.439Z,99407.26
2018-01-17T09:27:41.720Z,99405.58
2018-01-17T09:28:46.064Z,99399.58
2018-01-17T09:29:50.379Z,99409.30
2018-01-17T09:30:54.821Z,99394.93
2018-01-17T09:31:59.384Z,99401.95
2018-01-17T09:33:03.531Z,99399.39
2018-01-17T09:34:07.775Z,99409.93
2018-01-17T09:35:12.975Z,99403.41
2018-01-17T09:36:17.212Z,99407.31
2018-01-17T09:37:21.438Z,99404.20
2018-01-17T09:38:26.449Z,99399.86
2018-01-17T09:39:30.689Z,99405.09
2018-01-17T09:40:34.893Z,99406.30
2018-01-17T09:41:39.042Z,99412.92
2018-01-17T09:42:43.165Z,99410.24
2018-01-17T09:43:47.529Z,99417.18
2018-01-17T09:44:51.772Z,99418.44
2018-01-17T09:45:56.408Z,99418.45
2018-01-17T09:47:00.601Z,99420.20
2018-01-17T09:48:04.816Z,99417.45
2018-01-17T09:49:09.065Z,99416.14
2018-01-17T09:50:13.270Z,99416.11
2018-01-17T09:51:18.693Z,99428.41
2018-01-17T09:52:22.954Z,99422.34
2018-01-17T09:53:28.017Z,99433.68
2018-01-17T09:54:32.109Z,99427.46
2018-01-17T09:55:36.387Z,99437.87
2018-01-17T09:56:40.513Z,99427.53
2018-01-17T09:57:44.680Z,99436.87
2018-01-17T09:58:48.933Z,99445.94
2018-01-17T09:59:53.123Z,99454.06
2018-01-17T10:00:57.796Z,99454.28
2018-01-17T10:02:02.080Z,99452.13
2018-01-17T10:03:06.600Z,99454.05
2018-01-17T10:04:10.790Z,99458.83
2018-01-17T10:05:15.071Z,99456.77
2018-01-17T10:06:20.299Z,99470.33
2018-01-17T10:07:24.414Z,99464.52
2018-01-17T10:08:29.290Z,99469.08
2018-01-17T10:09:33.540Z,99469.56
2018-01-17T10:10:37.812Z,99462.40
2018-01-17T10:11:42.088Z,99474.63
2018-01-17T10:12:46.256Z,99465.67
2018-01-17T10:13:50.488Z,99466.97
2018-01-17T10:14:54.629Z,99479.64
2018-01-17T10:15:59.541Z,99475.95
2018-01-17T10:17:03.802Z,99481.00
2018-01-17T10:18:07.940Z,99485.31
2018-01-17T10:19:12.104Z,99486.33
2018-01-17T10:20:17.118Z,99478.43
2018-01-17T10:21:21.495Z,99484.73
2018-01-17T10:22:25.962Z,99491.70
2018-01-17T10:23:30.853Z,99493.59
2018-01-17T10:24:35.028Z,99493.00
2018-01-17T10:25:39.180Z,99485.55
2018-01-17T10:26:43.415Z,99485.09
2018-01-17T10:27:47.698Z,99492.28
2018-01-17T10:28:52.133Z,99487.25
2018-01-17T10:29:56.335Z,99499.87
2018-01-17T10:31:00.837Z,99492.41
2018-01-17T10:32:05.085Z,99491.48
2018-01-17T10:33:09.242Z,99489.56
2018-01-17T10:34:13.599Z,99491.81
2018-01-17T10:35:18.193Z,99496.48
2018-01-17T10:36:22.414Z,99492.64
2018-01-17T10:37:27.729Z,99490.23
2018-01-17T10:38:32.093Z,99498.80
2018-01-17T10:39:36.225Z,99488.13
2018-01-17T10:40:40.344Z,99498.70
2018-01-17T10:41:44.553Z,99491.77
2018-01-17T10:42:48.709Z,99493.30
2018-01-17T10:43:52.862Z,99500.70
2018-01-17T10:44:57.105Z,99503.08
2018-01-17T10:46:01.338Z,99493.92
2018-01-17T10:47:05.885Z,99496.20
2018-01-17T10:48:10.355Z,99498.99
2018-01-17T10:49:15.332Z,99495.09
2018-01-17T10:50:19.462Z,99493.25
2018-01-17T10:51:23.757Z,99485.11
2018-01-17T10:52:27.977Z,99496.44
2018-01-17T10:53:32.573Z,99484.30
2018-01-17T10:54:36.844Z,99495.08
2018-01-17T10:55:40.997Z,99485.09
2018-01-17T10:56:45.169Z,99493.96
2018-01-17T10:57:49.445Z,99486.25
2018-01-17T10:58:53.601Z,99492.16
2018-01-17T10:59:58.139Z,99492.64
2018-01-17T11:01:02.718Z,99487.72
2018-01-17T11:02:06.977Z,99489.77
2018-01-17T11:03:11.247Z,99496.59
2018-01-17T11:04:16.541Z,99503.02
2018-01-17T11:05:20.722Z,99506.10
2018-01-17T11:06:25.531Z,99498.56
2018-01-17T11:07:29.873Z,99494.27
2018-01-17T11:08:34.074Z,99511.59
2018-01-17T11:09:38.332Z,99497.30
2018-01-17T11:10:42.954Z,99492.56
2018-01-17T11:11:47.207Z,99489.52
2018-01-17T11:12:51.572Z,99489.55
2018-01-17T11:13:55.713Z,99490.45
2018-01-17T11:14:59.964Z,99485.92
2018-01-17T11:16:04.574Z,99490.16
2018-01-17T11:17:09.136Z,99493.13
2018-01-17T11:18:13.544Z,99485.23
2018-01-17T11:19:18.620Z,99481.08
2018-01-17T11:20:22.830Z,99485.78
2018-01-17T11:21:27.805Z,99497.55
2018-01-17T11:22:31.991Z,99488.80
2018-01-17T11:23:36.619Z,99495.31
2018-01-17T11:24:40.805Z,99497.06
2018-01-17T11:25:45.073Z,99498.55
2018-01-17T11:26:49.255Z,99493.27
2018-01-17T11:27:53.478Z,99498.45
2018-01-17T11:28:57.727Z,99492.91
2018-01-17T11:30:03.716Z,99489.25
2018-01-17T11:31:08.360Z,99496.55
2018-01-17T11:32:12.703Z,99499.85
2018-01-17T11:33:17.582Z,99504.04
2018-01-17T11:34:21.774Z,99498.27
2018-01-17T11:35:27.095Z,99498.81
2018-01-17T11:36:32.437Z,99507.47
2018-01-17T11:37:36.696Z,99502.01
2018-01-17T11:38:41.023Z,99501.50
2018-01-17T11:39:45.255Z,99492.22
2018-01-17T11:40:49.494Z,99495.27
2018-01-17T11:41:53.721Z,99510.51
2018-01-17T11:42:58.312Z,99516.74
2018-01-17T11:44:02.501Z,99500.11
2018-01-17T11:45:07.542Z,99495.86
2018-01-17T11:46:11.921Z,99494.09
2018-01-17T11:47:16.762Z,99500.69
2018-01-17T11:48:21.058Z,99500.80
2018-01-17T11:49:26.553Z,99492.56
2018-01-17T11:50:30.876Z,99495.78
2018-01-17T11:51:35.104Z,99499.31
2018-01-17T11:52:39.349Z,99503.70
2018-01-17T11:53:43.688Z,99511.49
2018-01-17T11:54:47.918Z,99503.56
2018-01-17T11:55:53.502Z,99506.33
2018-01-17T11:56:57.683Z,99492.98
2018-01-17T11:58:01.822Z,99505.60
2018-01-17T11:59:06.134Z,99501.75
2018-01-17T12:00:10.515Z,99502.61
2018-01-17T12:01:14.741Z,99500.38
2018-01-17T12:02:19.906Z,99515.47
2018-01-17T12:03:24.257Z,99511.69
2018-01-17T12:04:28.427Z,99514.03
2018-01-17T12:05:32.808Z,99501.51
2018-01-17T12:06:37.089Z,99522.14
2018-01-17T12:07:41.370Z,99514.42
2018-01-17T12:08:45.864Z,99514.94
2018-01-17T12:09:50.132Z,99521.63
2018-01-17T12:10:54.322Z,99514.20
2018-01-17T12:11:58.687Z,99520.98
2018-01-17T12:13:02.929Z,99518.63
2018-01-17T12:14:07.185Z,99521.34
2018-01-17T12:15:13.565Z,99522.03
2018-01-17T12:16:18.727Z,99518.14
2018-01-17T12:17:22.902Z,99520.52
2018-01-17T12:18:27.799Z,99514.55
2018-01-17T12:19:31.979Z,99516.88
2018-01-17T12:20:36.225Z,99514.33
2018-01-17T12:21:40.817Z,99532.30
2018-01-17T12:22:45.062Z,99527.25
2018-01-17T12:23:50.288Z,99528.78
2018-01-17T12:24:54.470Z,99532.55
2018-01-17T12:25:58.766Z,99539.73
2018-01-17T12:27:03.157Z,99546.42
2018-01-17T12:28:07.726Z,99546.56
2018-01-17T12:29:11.924Z,99546.70
2018-01-17T12:30:17.091Z,99550.64
2018-01-17T12:31:22.030Z,99540.59
2018-01-17T12:32:27.100Z,99549.77
2018-01-17T12:33:31.286Z,99542.67
2018-01-17T12:34:35.517Z,99548.32
2018-01-17T12:35:39.758Z,99542.16
2018-01-17T12:36:44.018Z,99535.54
2018-01-17T12:37:48.214Z,99543.84
2018-01-17T12:38:52.480Z,99550.82
2018-01-17T12:39:57.595Z,99547.23
2018-01-17T12:41:02.138Z,99543.64
2018-01-17T12:42:06.350Z,99540.05
2018-01-17T12:43:10.503Z,99540.80
2018-01-17T12:44:14.803Z,99544.24
2018-01-17T12:45:20.006Z,99534.53